createdAt,value
2018-03-30T00:00:16.242Z,38.60
2018-03-30T00:02:44.542Z,39.40
2018-03-30T00:05:12.886Z,35.97
2018-03-30T00:07:41.194Z,40.83
2018-03-30T00:10:09.526Z,39.70
2018-03-30T00:12:37.852Z,38.30
2018-03-30T00:15:06.243Z,40.27
2018-03-30T00:17:34.579Z,38.10
2018-03-30T00:20:02.950Z,43.20
2018-03-30T00:22:31.261Z,36.40
2018-03-30T00:24:59.607Z,37.13
2018-03-30T00:27:27.902Z,37.67
2018-03-30T00:29:56.254Z,39.63
2018-03-30T00:32:24.574Z,37.83
2018-03-30T00:34:52.873Z,39.90
2018-03-30T00:37:22.015Z,39.93
2018-03-30T00:39:50.317Z,42.43
2018-03-30T00:42:18.657Z,43.30
2018-03-30T00:44:47.019Z,37.50
2018-03-30T00:47:15.365Z,38.60
2018-03-30T00:49:43.678Z,38.23
2018-03-30T00:52:12.762Z,40.13
2018-03-30T00:54:41.058Z,41.00
2018-03-30T00:57:09.414Z,43.73
2018-03-30T00:59:38.626Z,42.70
2018-03-30T01:02:06.978Z,38.93
2018-03-30T01:04:35.291Z,39.20
2018-03-30T01:07:03.621Z,38.10
2018-03-30T01:09:31.925Z,42.63
2018-03-30T01:12:00.350Z,39.07
2018-03-30T01:14:28.667Z,40.33
2018-03-30T01:16:57.798Z,41.50
2018-03-30T01:19:26.103Z,36.37
2018-03-30T01:21:54.750Z,37.10
2018-03-30T01:24:23.846Z,39.30
2018-03-30T01:26:52.184Z,34.03
2018-03-30T01:29:21.310Z,35.93
2018-03-30T01:31:50.379Z,38.60
2018-03-30T01:34:19.501Z,37.70
2018-03-30T01:36:47.830Z,35.87
2018-03-30T01:39:16.173Z,38.00
2018-03-30T01:41:44.474Z,37.57
2018-03-30T01:44:13.109Z,40.03
2018-03-30T01:46:42.183Z,39.73
2018-03-30T01:49:11.294Z,36.80
2018-03-30T01:51:39.624Z,36.83
2018-03-30T01:54:07.958Z,40.50
2018-03-30T01:56:37.027Z,37.97
2018-03-30T01:59:05.437Z,38.73
2018-03-30T02:01:33.742Z,41.00
2018-03-30T02:04:02.098Z,39.80
2018-03-30T02:06:30.447Z,38.00
2018-03-30T02:08:59.567Z,39.83
2018-03-30T02:11:27.891Z,36.13
2018-03-30T02:13:56.298Z,38.73
2018-03-30T02:16:24.606Z,38.80
2018-03-30T02:18:59.026Z,36.53
2018-03-30T02:21:27.334Z,36.87
2018-03-30T02:23:55.757Z,33.83
2018-03-30T02:26:24.830Z,33.60
2018-03-30T02:28:53.914Z,33.30
2018-03-30T02:31:22.259Z,34.03
2018-03-30T02:33:50.607Z,36.33
2018-03-30T02:36:19.705Z,36.40
2018-03-30T02:38:48.014Z,32.20
2018-03-30T02:41:16.444Z,32.63
2018-03-30T02:43:45.521Z,38.53
2018-03-30T02:46:13.838Z,35.30
2018-03-30T02:48:42.154Z,37.60
2018-03-30T02:51:12.011Z,37.67
2018-03-30T02:53:41.082Z,38.47
2018-03-30T02:56:09.438Z,36.00
2018-03-30T02:58:37.745Z,36.03
2018-03-30T03:01:06.082Z,33.37
2018-03-30T03:03:34.729Z,34.90
2018-03-30T03:06:03.079Z,33.13
2018-03-30T03:08:31.404Z,34.77
2018-03-30T03:10:59.738Z,34.40
2018-03-30T03:13:28.839Z,34.90
2018-03-30T03:15:57.959Z,35.20
2018-03-30T03:18:26.377Z,37.20
2018-03-30T03:20:54.720Z,37.73
2018-03-30T03:23:23.038Z,33.67
2018-03-30T03:25:51.390Z,34.27
2018-03-30T03:28:19.706Z,39.20
2018-03-30T03:30:48.071Z,36.30
2018-03-30T03:33:16.382Z,35.20
2018-03-30T03:35:44.698Z,34.93
2018-03-30T03:38:13.047Z,41.97
2018-03-30T03:40:41.357Z,36.57
2018-03-30T03:43:10.109Z,31.60
2018-03-30T03:45:38.422Z,33.03
2018-03-30T03:48:06.835Z,33.50
2018-03-30T03:50:35.918Z,36.87
2018-03-30T03:53:04.300Z,35.90
2018-03-30T03:55:32.601Z,36.90
2018-03-30T03:58:01.710Z,34.50
2018-03-30T04:00:30.023Z,37.90
2018-03-30T04:02:58.350Z,35.77
2018-03-30T04:05:26.677Z,36.57
2018-03-30T04:07:55.107Z,39.53
2018-03-30T04:10:24.217Z,40.83
2018-03-30T04:12:52.585Z,34.80
2018-03-30T04:15:21.659Z,34.83
2018-03-30T04:17:50.792Z,35.13
2018-03-30T04:20:19.100Z,40.37
2018-03-30T04:22:47.444Z,35.57
2018-03-30T04:25:15.773Z,34.93
2018-03-30T04:27:44.929Z,32.97
2018-03-30T04:30:13.237Z,34.90
2018-03-30T04:32:41.559Z,41.20
2018-03-30T04:35:09.938Z,37.20
2018-03-30T04:37:38.251Z,33.57
2018-03-30T04:40:06.598Z,38.43
2018-03-30T04:42:34.954Z,35.37
2018-03-30T04:45:03.319Z,35.63
2018-03-30T04:47:32.401Z,41.83
2018-03-30T04:50:00.770Z,39.07
2018-03-30T04:52:29.070Z,38.23
2018-03-30T04:54:57.442Z,41.53
2018-03-30T04:57:26.538Z,37.43
2018-03-30T04:59:54.886Z,40.93
2018-03-30T05:02:23.220Z,36.40
2018-03-30T05:04:51.572Z,35.10
2018-03-30T05:07:19.875Z,38.70
2018-03-30T05:09:49.159Z,35.30
2018-03-30T05:12:18.235Z,39.43
2018-03-30T05:14:46.577Z,42.33
2018-03-30T05:17:14.894Z,40.90
2018-03-30T05:19:43.506Z,41.50
2018-03-30T05:22:11.834Z,38.77
2018-03-30T05:24:40.177Z,39.37
2018-03-30T05:27:08.510Z,36.50
2018-03-30T05:29:36.877Z,37.50
2018-03-30T05:32:05.200Z,34.73
2018-03-30T05:34:33.778Z,38.50
2018-03-30T05:37:02.141Z,33.00
2018-03-30T05:39:31.228Z,35.23
2018-03-30T05:41:59.561Z,33.70
2018-03-30T05:44:27.884Z,36.50
2018-03-30T05:46:56.991Z,33.80
2018-03-30T05:49:25.321Z,34.93
2018-03-30T05:51:53.665Z,38.30
2018-03-30T05:54:21.977Z,33.40
2018-03-30T05:56:50.394Z,33.17
2018-03-30T05:59:18.985Z,33.63
2018-03-30T06:01:48.095Z,30.67
2018-03-30T06:04:16.418Z,33.23
2018-03-30T06:06:44.751Z,36.10
2018-03-30T06:09:13.053Z,33.00
2018-03-30T06:11:41.482Z,32.17
2018-03-30T06:14:10.553Z,31.37
2018-03-30T06:16:38.901Z,30.33
2018-03-30T06:19:07.561Z,30.97
2018-03-30T06:21:35.911Z,29.63
2018-03-30T06:24:04.995Z,32.30
2018-03-30T06:26:33.328Z,32.20
2018-03-30T06:29:01.646Z,35.27
2018-03-30T06:31:30.043Z,34.13
2018-03-30T06:33:58.363Z,33.00
2018-03-30T06:36:26.680Z,33.23
2018-03-30T06:38:55.050Z,32.27
2018-03-30T06:41:23.362Z,28.60
2018-03-30T06:43:51.704Z,28.60
2018-03-30T06:46:20.007Z,32.50
2018-03-30T06:48:48.350Z,31.87
2018-03-30T06:51:17.078Z,28.50
2018-03-30T06:53:45.494Z,34.53
2018-03-30T06:56:14.234Z,31.23
2018-03-30T06:58:43.342Z,30.33
2018-03-30T07:01:11.655Z,30.93
2018-03-30T07:03:39.990Z,28.03
2018-03-30T07:06:09.053Z,30.00
2018-03-30T07:08:37.405Z,27.87
2018-03-30T07:11:05.719Z,29.53
2018-03-30T07:13:34.090Z,29.90
2018-03-30T07:16:03.407Z,31.10
2018-03-30T07:18:32.610Z,32.43
2018-03-30T07:21:02.118Z,29.10
2018-03-30T07:23:30.524Z,30.40
2018-03-30T07:25:58.829Z,28.93
2018-03-30T07:28:27.170Z,29.33
2018-03-30T07:30:55.475Z,29.67
2018-03-30T07:33:23.810Z,29.80
2018-03-30T07:35:52.998Z,32.27
2018-03-30T07:38:22.665Z,27.77
2018-03-30T07:40:50.891Z,31.27
2018-03-30T07:43:19.199Z,29.03
2018-03-30T07:45:48.154Z,32.20
2018-03-30T07:48:17.209Z,35.87
2018-03-30T07:50:45.542Z,28.27
2018-03-30T07:53:13.878Z,27.77
2018-03-30T07:55:42.996Z,34.72
2018-03-30T07:58:11.298Z,31.63
2018-03-30T08:00:39.648Z,30.67
2018-03-30T08:03:08.018Z,29.30
2018-03-30T08:05:37.138Z,31.60
2018-03-30T08:08:05.453Z,30.80
2018-03-30T08:10:33.861Z,29.73
2018-03-30T08:13:02.935Z,28.17
2018-03-30T08:15:31.270Z,27.07
2018-03-30T08:17:59.576Z,27.43
2018-03-30T08:20:29.054Z,25.23
2018-03-30T08:22:57.358Z,42.37
2018-03-30T08:25:25.726Z,32.57
2018-03-30T08:27:54.053Z,29.37
2018-03-30T08:30:23.160Z,29.43
2018-03-30T08:32:51.493Z,26.63
2018-03-30T08:35:20.994Z,30.63
2018-03-30T08:37:50.112Z,26.00
2018-03-30T08:40:19.197Z,31.50
2018-03-30T08:42:47.547Z,27.47
2018-03-30T08:45:15.875Z,32.20
2018-03-30T08:47:44.977Z,28.33
2018-03-30T08:50:13.298Z,25.30
2018-03-30T08:52:41.650Z,27.70
2018-03-30T08:55:10.227Z,26.63
2018-03-30T08:57:38.572Z,25.23
2018-03-30T09:00:07.660Z,25.03
2018-03-30T09:02:36.782Z,22.03
2018-03-30T09:05:05.123Z,17.97
2018-03-30T09:07:33.466Z,18.97
2018-03-30T09:10:01.776Z,18.43
2018-03-30T09:12:30.117Z,19.00
2018-03-30T09:14:58.427Z,19.23
2018-03-30T09:17:28.283Z,19.93
2018-03-30T09:19:56.622Z,20.97
2018-03-30T09:22:24.955Z,19.10
2018-03-30T09:24:53.270Z,18.37
2018-03-30T09:27:21.602Z,20.27
2018-03-30T09:29:53.835Z,19.23
2018-03-30T09:32:22.437Z,21.13
2018-03-30T09:34:50.814Z,17.80
2018-03-30T09:37:19.175Z,16.87
2018-03-30T09:39:47.498Z,17.03
2018-03-30T09:42:15.943Z,20.10
2018-03-30T09:44:44.293Z,17.37
2018-03-30T09:47:12.654Z,17.07
2018-03-30T09:49:40.971Z,21.27
2018-03-30T09:52:09.291Z,22.63
2018-03-30T09:54:37.654Z,19.17
2018-03-30T09:57:05.991Z,18.83
2018-03-30T09:59:34.593Z,20.10
2018-03-30T10:02:03.667Z,22.57
2018-03-30T10:04:32.786Z,18.20
2018-03-30T10:07:01.131Z,19.50
2018-03-30T10:09:30.258Z,18.33
2018-03-30T10:11:58.601Z,18.40
2018-03-30T10:14:26.961Z,19.70
2018-03-30T10:16:55.277Z,20.27
2018-03-30T10:19:23.634Z,19.70
2018-03-30T10:21:51.946Z,18.33
2018-03-30T10:24:20.628Z,20.83
2018-03-30T10:26:48.937Z,22.50
2018-03-30T10:29:18.110Z,18.90
2018-03-30T10:31:46.642Z,19.37
2018-03-30T10:34:15.058Z,19.03
2018-03-30T10:36:44.145Z,18.67
2018-03-30T10:39:13.263Z,26.43
2018-03-30T10:41:41.619Z,23.30
2018-03-30T10:44:09.998Z,17.33
2018-03-30T10:46:38.326Z,18.03
2018-03-30T10:49:06.639Z,19.10
2018-03-30T10:51:35.035Z,18.57
2018-03-30T10:54:04.116Z,15.80
2018-03-30T10:56:33.583Z,18.13
2018-03-30T10:59:01.955Z,19.23
2018-03-30T11:01:31.459Z,19.53
2018-03-30T11:03:59.775Z,18.30
2018-03-30T11:06:35.143Z,17.77
2018-03-30T11:09:03.452Z,16.80
2018-03-30T11:11:31.833Z,14.43
2018-03-30T11:14:00.150Z,18.20
2018-03-30T11:16:29.274Z,18.67
2018-03-30T11:18:57.595Z,19.07
2018-03-30T11:21:26.783Z,16.30
2018-03-30T11:23:56.609Z,16.70
2018-03-30T11:26:24.962Z,17.10
2018-03-30T11:28:53.506Z,17.57
2018-03-30T11:31:22.611Z,18.07
2018-03-30T11:33:50.963Z,19.80
2018-03-30T11:42:18.323Z,19.17
2018-03-30T11:47:43.981Z,18.00
2018-03-30T11:50:13.057Z,17.30
2018-03-30T11:52:41.410Z,19.27
2018-03-30T11:55:09.774Z,19.20
2018-03-30T11:57:38.137Z,19.40
2018-03-30T12:00:06.450Z,16.43
2018-03-30T12:02:34.810Z,17.20
2018-03-30T12:05:03.144Z,18.57
2018-03-30T12:07:32.249Z,17.47
2018-03-30T12:10:00.575Z,16.97
2018-03-30T12:12:28.953Z,20.20
2018-03-30T12:14:57.325Z,17.43
2018-03-30T12:17:25.698Z,16.00
2018-03-30T12:19:53.998Z,22.13
2018-03-30T12:22:22.354Z,18.57
2018-03-30T12:24:50.649Z,20.03
2018-03-30T12:27:18.958Z,19.30
2018-03-30T12:29:48.080Z,17.67
2018-03-30T12:32:16.514Z,15.77
2018-03-30T12:34:45.517Z,20.07
2018-03-30T12:37:13.830Z,23.77
2018-03-30T12:39:42.197Z,28.30
2018-03-30T12:42:11.261Z,27.20
2018-03-30T12:44:39.597Z,24.50
2018-03-30T12:47:07.938Z,22.80
2018-03-30T12:49:37.041Z,22.47
2018-03-30T12:52:05.355Z,22.30
2018-03-30T12:54:33.690Z,20.13
2018-03-30T12:57:02.007Z,18.90
2018-03-30T12:59:30.354Z,20.27
2018-03-30T13:01:58.729Z,19.73
2018-03-30T13:04:27.087Z,18.10
2018-03-30T13:06:56.174Z,19.80
2018-03-30T13:09:25.277Z,22.37
2018-03-30T13:11:53.629Z,19.27
2018-03-30T13:14:21.975Z,18.60
2018-03-30T13:16:50.314Z,17.93
2018-03-30T13:19:19.429Z,19.07
2018-03-30T13:21:47.734Z,21.57
2018-03-30T13:24:16.378Z,24.40
2018-03-30T13:26:44.694Z,23.10
2018-03-30T13:29:13.002Z,20.47
2018-03-30T13:31:41.354Z,19.57
2018-03-30T13:34:09.664Z,17.90
2018-03-30T13:36:38.787Z,19.40
2018-03-30T13:39:07.106Z,18.67
2018-03-30T13:41:36.970Z,20.07
2018-03-30T13:47:03.365Z,19.73
2018-03-30T13:49:31.662Z,18.63
2018-03-30T13:52:00.010Z,21.37
2018-03-30T13:54:28.322Z,20.90
2018-03-30T13:56:57.598Z,22.57
2018-03-30T13:59:27.590Z,21.67
2018-03-30T14:15:19.919Z,16.03
2018-03-30T14:31:29.050Z,25.07
2018-03-30T14:33:58.950Z,20.10
2018-03-30T14:50:08.372Z,23.90
2018-03-30T14:52:39.580Z,20.60
2018-03-30T15:08:29.191Z,20.87
2018-03-30T15:11:35.002Z,20.87
2018-03-30T15:14:09.109Z,22.60
2018-03-30T15:16:39.223Z,22.03
2018-03-30T15:19:09.254Z,20.53
2018-03-30T15:21:39.168Z,17.90
2018-03-30T15:24:09.998Z,21.63
2018-03-30T15:26:42.929Z,29.40
2018-03-30T15:29:21.994Z,21.17
2018-03-30T15:31:57.483Z,19.27
2018-03-30T15:34:26.629Z,22.80
2018-03-30T15:36:57.678Z,18.70
2018-03-30T15:39:26.020Z,19.40
2018-03-30T15:41:54.330Z,21.13
2018-03-30T15:44:24.465Z,22.97
2018-03-30T15:46:56.315Z,20.60
2018-03-30T15:49:25.596Z,20.37
2018-03-30T15:51:55.355Z,25.13
2018-03-30T15:54:23.950Z,21.43
2018-03-30T15:56:53.231Z,21.03
2018-03-30T15:59:21.566Z,20.83
2018-03-30T16:01:49.886Z,20.03
2018-03-30T16:04:18.455Z,21.47
2018-03-30T16:06:47.534Z,26.17
2018-03-30T16:09:29.230Z,19.57
2018-03-30T16:12:01.091Z,20.00
2018-03-30T16:14:29.446Z,20.97
2018-03-30T16:16:57.773Z,20.53
2018-03-30T16:19:25.613Z,17.27
2018-03-30T16:21:54.219Z,17.70
2018-03-30T16:24:22.030Z,19.03
2018-03-30T16:26:49.882Z,20.00
2018-03-30T16:29:17.727Z,19.57
2018-03-30T16:31:45.617Z,20.43
2018-03-30T16:34:13.434Z,19.63
2018-03-30T16:36:41.287Z,19.20
2018-03-30T16:39:09.113Z,19.07
2018-03-30T16:41:36.966Z,21.07
2018-03-30T16:44:05.094Z,19.47
2018-03-30T16:46:32.948Z,19.40
2018-03-30T16:49:01.546Z,22.83
2018-03-30T16:51:30.200Z,19.80
2018-03-30T16:53:58.032Z,22.40
2018-03-30T16:56:25.866Z,21.70
2018-03-30T16:58:53.739Z,21.10
2018-03-30T17:01:21.550Z,20.27
2018-03-30T17:03:49.404Z,18.47
2018-03-30T17:06:17.326Z,19.90
2018-03-30T17:08:45.288Z,21.17
2018-03-30T17:11:13.926Z,19.60
2018-03-30T17:13:41.803Z,23.30
2018-03-30T17:16:09.685Z,21.97
2018-03-30T17:18:37.494Z,20.67
2018-03-30T17:21:05.311Z,22.43
2018-03-30T17:23:33.934Z,21.47
2018-03-30T17:26:01.758Z,20.83
2018-03-30T17:28:29.862Z,22.53
2018-03-30T17:30:57.686Z,26.17
2018-03-30T17:33:26.629Z,20.90
2018-03-30T17:35:54.484Z,20.97
2018-03-30T17:38:23.125Z,23.60
2018-03-30T17:40:52.470Z,26.40
2018-03-30T17:43:20.299Z,22.20
2018-03-30T17:45:48.945Z,24.43
2018-03-30T17:48:16.795Z,21.80
2018-03-30T17:50:44.654Z,25.97
2018-03-30T17:53:12.490Z,23.17
2018-03-30T17:55:41.192Z,21.87
2018-03-30T17:58:09.766Z,22.87
2018-03-30T18:00:37.617Z,20.80
2018-03-30T18:03:05.441Z,24.70
2018-03-30T18:05:33.298Z,23.00
2018-03-30T18:08:01.834Z,23.50
2018-03-30T18:10:29.690Z,20.13
2018-03-30T18:12:57.507Z,21.27
2018-03-30T18:15:25.369Z,21.33
2018-03-30T18:17:53.203Z,21.13
2018-03-30T18:20:21.822Z,21.87
2018-03-30T18:22:49.661Z,20.77
2018-03-30T18:25:18.562Z,26.13
2018-03-30T18:27:46.403Z,22.20
2018-03-30T18:30:14.263Z,24.07
2018-03-30T18:32:42.320Z,21.77
2018-03-30T18:35:10.171Z,23.13
2018-03-30T18:37:37.994Z,22.83
2018-03-30T18:40:05.875Z,21.43
2018-03-30T18:42:33.720Z,21.57
2018-03-30T18:45:01.554Z,20.53
2018-03-30T18:47:29.443Z,23.07
2018-03-30T18:49:58.035Z,23.20
2018-03-30T18:52:27.016Z,25.87
2018-03-30T18:54:55.594Z,22.60
2018-03-30T18:57:23.466Z,24.17
2018-03-30T18:59:51.306Z,26.10
2018-03-30T19:02:20.666Z,26.07
2018-03-30T19:04:48.485Z,25.67
2018-03-30T19:07:17.971Z,26.20
2018-03-30T19:09:45.684Z,25.13
2018-03-30T19:12:13.543Z,26.37
2018-03-30T19:14:42.111Z,25.23
2018-03-30T19:17:10.724Z,28.77
2018-03-30T19:19:38.575Z,26.67
2018-03-30T19:22:06.448Z,26.40
2018-03-30T19:24:35.023Z,26.20
2018-03-30T19:27:02.898Z,25.07
2018-03-30T19:29:31.577Z,23.00
2018-03-30T19:32:00.466Z,21.97
2018-03-30T19:34:28.306Z,22.93
2018-03-30T19:36:56.149Z,24.20
2018-03-30T19:39:23.969Z,22.60
2018-03-30T19:41:51.929Z,25.17
2018-03-30T19:44:20.607Z,25.83
2018-03-30T19:46:49.225Z,22.80
2018-03-30T19:49:17.041Z,24.00
2018-03-30T19:51:45.686Z,24.40
2018-03-30T20:07:08.205Z,23.03
2018-03-30T20:09:36.075Z,23.10
2018-03-30T20:12:04.894Z,21.63
2018-03-30T20:14:32.734Z,21.90
2018-03-30T20:17:00.582Z,22.40
2018-03-30T20:19:28.562Z,21.17
2018-03-30T20:21:56.436Z,23.37
2018-03-30T20:24:24.438Z,22.90
2018-03-30T20:26:52.314Z,21.47
2018-03-30T20:29:20.933Z,20.67
2018-03-30T20:31:49.534Z,22.90
2018-03-30T20:34:17.382Z,22.20
2018-03-30T20:36:45.331Z,21.17
2018-03-30T20:39:13.291Z,21.23
2018-03-30T20:41:41.226Z,18.53
2018-03-30T20:44:09.066Z,20.77
2018-03-30T20:46:37.698Z,19.80
2018-03-30T20:49:05.567Z,19.97
2018-03-30T20:51:34.150Z,19.30
2018-03-30T20:54:02.770Z,21.70
2018-03-30T20:56:30.587Z,22.83
2018-03-30T20:58:59.203Z,20.83
2018-03-30T21:01:27.043Z,21.30
2018-03-30T21:03:55.658Z,19.23
2018-03-30T21:06:23.459Z,24.37
2018-03-30T21:08:51.335Z,21.73
2018-03-30T21:11:19.165Z,22.03
2018-03-30T21:13:46.978Z,22.23
2018-03-30T21:16:14.941Z,25.57
2018-03-30T21:18:42.757Z,19.50
2018-03-30T21:21:10.598Z,20.70
2018-03-30T21:23:39.490Z,20.90
2018-03-30T21:26:07.356Z,20.60
2018-03-30T21:28:35.188Z,20.53
2018-03-30T21:31:03.018Z,20.07
2018-03-30T21:33:30.896Z,24.37
2018-03-30T21:35:58.742Z,22.17
2018-03-30T21:38:26.549Z,24.27
2018-03-30T21:40:54.408Z,20.70
2018-03-30T21:43:22.226Z,22.00
2018-03-30T21:45:50.070Z,22.87
2018-03-30T21:48:17.902Z,20.57
2018-03-30T21:50:45.757Z,20.20
2018-03-30T21:53:13.606Z,20.53
2018-03-30T21:55:41.465Z,22.13
2018-03-30T21:58:09.278Z,22.87
2018-03-30T22:00:37.914Z,20.27
2018-03-30T22:03:05.739Z,22.43
2018-03-30T22:05:34.354Z,18.73
2018-03-30T22:08:02.188Z,21.50
2018-03-30T22:10:30.816Z,19.03
2018-03-30T22:12:58.669Z,22.03
2018-03-30T22:15:26.545Z,18.70
2018-03-30T22:17:54.366Z,21.07
2018-03-30T22:20:22.954Z,21.03
2018-03-30T22:22:51.573Z,22.47
2018-03-30T22:25:19.399Z,21.80
2018-03-30T22:27:48.031Z,19.57
2018-03-30T22:30:15.862Z,19.53
2018-03-30T22:32:43.722Z,21.13
2018-03-30T22:35:12.312Z,20.20
2018-03-30T22:37:40.913Z,20.30
2018-03-30T22:40:08.738Z,22.10
2018-03-30T22:42:36.575Z,21.50
2018-03-30T22:45:04.400Z,20.30
2018-03-30T22:47:32.994Z,22.23
2018-03-30T22:50:00.817Z,20.20
2018-03-30T22:52:28.662Z,21.77
2018-03-30T22:54:56.498Z,20.20
2018-03-30T22:57:24.351Z,23.77
2018-03-30T22:59:52.187Z,20.03
2018-03-30T23:02:20.798Z,20.77
2018-03-30T23:04:48.654Z,22.47
2018-03-30T23:07:16.467Z,21.33
2018-03-30T23:09:44.302Z,22.80
2018-03-30T23:12:12.174Z,19.10
2018-03-30T23:14:39.994Z,18.93
2018-03-30T23:17:08.619Z,20.37
2018-03-30T23:19:36.439Z,16.57
2018-03-30T23:22:04.302Z,19.13
2018-03-30T23:24:32.506Z,19.60
2018-03-30T23:27:00.326Z,21.80
2018-03-30T23:29:28.438Z,18.63
2018-03-30T23:31:56.257Z,18.60
2018-03-30T23:34:24.906Z,16.63
2018-03-30T23:36:52.713Z,17.70
2018-03-30T23:39:20.562Z,19.47
2018-03-30T23:41:48.406Z,18.70
2018-03-30T23:44:16.258Z,19.17
2018-03-30T23:46:44.074Z,17.33
2018-03-30T23:49:11.922Z,19.53
2018-03-30T23:51:39.726Z,18.50
2018-03-30T23:54:08.343Z,18.17
2018-03-30T23:56:36.166Z,19.93
2018-03-30T23:59:04.014Z,18.43
